Time;durP1;ratioP1;P1;durP2;ratioP2;P2;SDS_P1;SDS_P2;PMS_P1;PMS_P2;Temp;Humidity;BMP_temperature;BMP_pressure;BME280_temperature;BME280_humidity;BME280_pressure;Samples;Min_cycle;Max_cycle;Signal;HPM_P1;HPM_P2
2021/12/11 00:03:19;;;;;;;23.60;14.30;;;;;;;-0.77;100.00;100801.84;10542128;28;20067;-56
2021/12/11 00:08:28;;;;;;;35.47;16.42;;;;;;;-1.05;100.00;100803.84;10540267;28;20044;-56
2021/12/11 00:13:36;;;;;;;31.55;14.85;;;;;;;-0.90;100.00;100813.13;10541400;28;20044;-54
2021/12/11 00:18:39;;;;;;;29.27;15.77;;;;;;;-1.02;100.00;100830.34;10541848;28;20377;-55
2021/12/11 00:24:00;;;;;;;33.15;16.33;;;;;;;-1.00;100.00;100841.47;10541176;28;20546;-55
2021/12/11 00:29:04;;;;;;;29.48;16.85;;;;;;;-1.06;100.00;100851.81;10541548;28;20071;-52
2021/12/11 00:34:11;;;;;;;21.02;13.20;;;;;;;-0.79;100.00;100876.41;10540954;28;20044;-53
2021/12/11 00:39:14;;;;;;;24.25;13.95;;;;;;;-0.96;100.00;100885.97;10541245;28;20040;-53
2021/12/11 00:44:17;;;;;;;20.98;12.95;;;;;;;-1.03;100.00;100892.03;10540737;28;20055;-53
2021/12/11 00:49:21;;;;;;;31.27;14.55;;;;;;;-1.07;100.00;100895.50;10540498;28;20050;-55
2021/12/11 00:54:24;;;;;;;29.15;14.57;;;;;;;-1.13;100.00;100907.53;10540157;28;20592;-54
2021/12/11 00:59:26;;;;;;;27.23;13.23;;;;;;;-1.17;100.00;100905.00;10540279;28;20052;-57
2021/12/11 01:04:32;;;;;;;26.95;13.32;;;;;;;-1.24;100.00;100916.19;10539850;28;20047;-54
2021/12/11 01:09:42;;;;;;;25.77;13.63;;;;;;;-0.88;100.00;100939.91;10538757;28;20415;-54
2021/12/11 01:14:53;;;;;;;21.30;13.98;;;;;;;-1.15;100.00;100950.38;10540134;28;20051;-55
2021/12/11 01:19:59;;;;;;;33.83;16.42;;;;;;;-0.94;100.00;100975.06;10539834;28;20051;-54
2021/12/11 01:25:06;;;;;;;27.30;14.77;;;;;;;-1.16;100.00;100969.22;10539920;28;20052;-56
2021/12/11 01:30:13;;;;;;;33.15;15.25;;;;;;;-1.28;100.00;100983.84;10539640;28;20040;-56
2021/12/11 01:35:17;;;;;;;39.45;14.32;;;;;;;-1.02;100.00;101011.97;10539402;28;20396;-53
2021/12/11 01:40:20;;;;;;;29.55;16.20;;;;;;;-1.22;100.00;100997.53;10539119;28;20063;-54
2021/12/11 01:45:23;;;;;;;38.75;16.00;;;;;;;-1.03;100.00;101025.69;10539545;28;20052;-55
2021/12/11 01:50:33;;;;;;;26.80;14.77;;;;;;;-0.88;100.00;101038.44;10539209;28;20052;-55
2021/12/11 01:55:40;;;;;;;26.77;15.20;;;;;;;-0.96;100.00;101035.94;10540409;28;20052;-57
2021/12/11 02:00:57;;;;;;;24.60;14.18;;;;;;;-1.15;100.00;101039.44;10539078;28;20056;-51
2021/12/11 02:06:00;;;;;;;24.50;14.73;;;;;;;-1.10;100.00;101057.44;10538780;28;20408;-52
2021/12/11 02:11:18;;;;;;;25.40;14.98;;;;;;;-0.95;100.00;101065.91;10538780;28;20079;-57
2021/12/11 02:16:25;;;;;;;22.27;13.55;;;;;;;-1.18;100.00;101062.59;10539018;28;20044;-56
2021/12/11 02:21:55;;;;;;;27.60;17.08;;;;;;;-0.81;100.00;101082.97;10542102;28;20058;-56
2021/12/11 02:26:58;;;;;;;26.77;17.30;;;;;;;-1.03;100.00;101089.94;10545951;28;20051;-56
2021/12/11 02:32:07;;;;;;;29.95;17.30;;;;;;;-1.05;100.00;101095.09;10545785;28;20050;-57
2021/12/11 02:37:21;;;;;;;33.53;17.27;;;;;;;-0.88;100.00;101107.84;10544558;28;20480;-53
2021/12/11 02:42:39;;;;;;;29.02;17.63;;;;;;;-0.87;100.00;101117.28;10545996;28;20056;-53
2021/12/11 02:47:50;;;;;;;35.47;19.10;;;;;;;-1.03;100.00;101111.34;10546738;28;20048;-54
2021/12/11 02:53:01;;;;;;;32.42;19.23;;;;;;;-0.86;100.00;101123.25;10545266;28;20051;-54
2021/12/11 02:58:14;;;;;;;32.67;18.03;;;;;;;-1.12;100.00;101119.09;10545192;28;20047;-54
2021/12/11 03:03:26;;;;;;;32.75;20.13;;;;;;;-1.12;100.00;101126.81;10544663;28;20389;-56
2021/12/11 03:08:28;;;;;;;36.33;18.65;;;;;;;-1.18;100.00;101124.25;10545111;28;20067;-55
2021/12/11 03:13:34;;;;;;;28.67;17.48;;;;;;;-1.48;100.00;101132.91;10544136;28;20089;-54
2021/12/11 03:18:37;;;;;;;25.30;16.20;;;;;;;-1.33;100.00;101146.59;10542676;28;20058;-56
2021/12/11 03:23:41;;;;;;;35.63;17.67;;;;;;;-0.96;100.00;101166.16;10544094;28;20123;-57
2021/12/11 03:28:44;;;;;;;34.55;14.18;;;;;;;-1.29;100.00;101160.28;10544388;28;20051;-55
2021/12/11 03:33:50;;;;;;;30.08;14.05;;;;;;;-1.39;100.00;101171.44;10541445;28;20044;-54
2021/12/11 03:38:56;;;;;;;21.23;13.80;;;;;;;-1.20;100.00;101183.34;10544077;28;20048;-55
2021/12/11 03:43:59;;;;;;;24.48;14.40;;;;;;;-1.23;100.00;101180.78;10543038;28;20052;-55
2021/12/11 03:49:06;;;;;;;18.88;13.20;;;;;;;-1.26;100.00;101185.97;10543139;28;20051;-54
2021/12/11 03:54:11;;;;;;;21.63;13.20;;;;;;;-1.29;100.00;101178.25;10542892;28;20063;-53
2021/12/11 03:59:15;;;;;;;21.85;13.10;;;;;;;-1.15;100.00;101196.19;10542449;28;20056;-54
2021/12/11 04:04:26;;;;;;;22.90;12.77;;;;;;;-1.39;100.00;101189.41;10542179;28;20048;-57
2021/12/11 04:09:29;;;;;;;29.50;15.60;;;;;;;-1.31;100.00;101197.97;10542599;28;20051;-56
2021/12/11 04:14:33;;;;;;;23.73;14.07;;;;;;;-1.24;100.00;101209.09;10541575;28;20055;-57
2021/12/11 04:19:36;;;;;;;25.08;13.20;;;;;;;-1.19;100.00;101228.75;10540585;28;20126;-56
2021/12/11 04:24:40;;;;;;;26.95;13.55;;;;;;;-1.50;100.00;101226.25;10541177;28;20048;-57
2021/12/11 04:29:43;;;;;;;34.80;16.20;;;;;;;-1.71;100.00;101226.25;10541200;28;20408;-55
2021/12/11 04:34:46;;;;;;;26.85;17.10;;;;;;;-1.53;100.00;101236.50;10541026;28;20490;-54
2021/12/11 04:39:57;;;;;;;40.25;19.35;;;;;;;-1.36;100.00;101248.47;10540915;28;20388;-56
2021/12/11 04:45:00;;;;;;;26.38;17.08;;;;;;;-1.53;100.00;101249.34;10540581;28;20071;-53
2021/12/11 04:50:10;;;;;;;29.40;15.95;;;;;;;-1.24;100.00;101265.59;10540549;28;20079;-56
2021/12/11 05:05:59;;;;;;;29.40;16.35;;;;;;;-1.07;100.00;101299.84;10540398;28;20048;-53
2021/12/11 05:11:06;;;;;;;31.60;17.02;;;;;;;-1.17;100.00;101313.56;10539905;28;20059;-53
2021/12/11 05:16:10;;;;;;;26.27;17.45;;;;;;;-0.81;100.00;101315.22;10540098;28;20047;-56
2021/12/11 05:21:17;;;;;;;29.67;16.92;;;;;;;-0.83;100.00;101318.66;10539653;28;20051;-54
2021/12/11 05:26:20;;;;;;;38.78;19.40;;;;;;;-0.57;100.00;101334.88;10538613;28;20047;-56
2021/12/11 05:31:23;;;;;;;28.55;16.83;;;;;;;-0.75;100.00;101338.34;10539390;28;20493;-53
2021/12/11 05:36:31;;;;;;;24.40;14.77;;;;;;;-0.63;100.00;101345.19;10540641;28;20080;-53
2021/12/11 05:41:33;;;;;;;26.40;16.30;;;;;;;-0.70;100.00;101346.06;10539075;28;20056;-53
2021/12/11 05:46:36;;;;;;;31.77;18.02;;;;;;;-0.34;100.00;101353.69;10539332;28;20048;-56
2021/12/11 05:51:40;;;;;;;42.20;20.55;;;;;;;-0.18;100.00;101365.63;10539226;28;20131;-56
2021/12/11 05:56:44;;;;;;;47.10;22.65;;;;;;;0.02;100.00;101391.31;10543376;28;20044;-55
2021/12/11 06:02:08;;;;;;;51.67;23.48;;;;;;;0.23;100.00;101374.03;10546933;28;20052;-53
2021/12/11 06:07:12;;;;;;;58.80;24.33;;;;;;;0.40;100.00;101395.38;10547106;28;20044;-56
2021/12/11 06:12:17;;;;;;;64.45;27.10;;;;;;;0.20;100.00;101381.75;10546542;28;20404;-53
2021/12/11 06:17:26;;;;;;;62.63;25.75;;;;;;;0.21;100.00;101388.63;10546669;28;20058;-57
2021/12/11 06:22:34;;;;;;;61.40;26.98;;;;;;;0.24;100.00;101406.66;10545048;28;20052;-52
2021/12/11 06:27:37;;;;;;;68.95;27.13;;;;;;;0.39;100.00;101416.88;10546432;28;20040;-58
2021/12/11 06:32:45;;;;;;;65.88;25.50;;;;;;;0.30;100.00;101411.75;10546575;28;20080;-53
2021/12/11 06:37:47;;;;;;;70.53;26.20;;;;;;;0.34;100.00;101427.19;10545873;28;20048;-56
2021/12/11 06:42:51;;;;;;;57.78;24.73;;;;;;;0.47;100.00;101463.19;10545268;28;20056;-50
2021/12/11 06:47:54;;;;;;;45.75;23.25;;;;;;;0.25;100.00;101442.69;10545558;28;20566;-55
2021/12/11 06:52:58;;;;;;;52.00;22.38;;;;;;;0.62;100.00;101457.97;10544962;28;20094;-57
2021/12/11 06:58:01;;;;;;;68.30;26.58;;;;;;;0.35;100.00;101462.41;10543966;28;20040;-52
2021/12/11 07:03:04;;;;;;;81.22;29.70;;;;;;;0.32;100.00;101485.59;10544669;28;20059;-54
2021/12/11 07:08:08;;;;;;;48.95;24.17;;;;;;;0.55;100.00;101488.09;10545072;28;20082;-53
2021/12/11 07:13:11;;;;;;;58.40;25.77;;;;;;;0.57;100.00;101494.94;10544319;28;20044;-53
2021/12/11 07:18:13;;;;;;;75.47;28.08;;;;;;;0.66;100.00;101505.22;10544236;28;20407;-55
2021/12/11 07:23:16;;;;;;;63.40;28.25;;;;;;;0.45;100.00;101495.84;10543933;28;20059;-54
2021/12/11 07:28:21;;;;;;;68.63;28.55;;;;;;;0.44;100.00;101502.72;10543289;28;20048;-55
2021/12/11 07:33:24;;;;;;;68.88;29.48;;;;;;;0.48;100.00;101526.75;10543123;28;20052;-53
2021/12/11 07:38:26;;;;;;;55.00;27.52;;;;;;;0.70;100.00;101532.66;10543662;28;20059;-57
2021/12/11 07:43:30;;;;;;;66.95;29.75;;;;;;;0.50;100.00;101523.28;10542758;28;20063;-53
2021/12/11 07:48:32;;;;;;;85.40;32.47;;;;;;;0.44;100.00;101523.34;10541692;28;20063;-57
2021/12/11 07:53:35;;;;;;;77.60;30.48;;;;;;;0.59;100.00;101555.03;10542663;28;20044;-53
2021/12/11 07:58:37;;;;;;;67.60;31.48;;;;;;;0.52;100.00;101547.38;10524462;28;20514;-58
2021/12/11 08:03:40;;;;;;;83.38;31.85;;;;;;;0.54;100.00;101563.66;10542285;28;20043;-55
2021/12/11 08:08:45;;;;;;;63.00;30.73;;;;;;;0.51;100.00;101573.97;10542947;28;20075;-57
2021/12/11 08:13:50;;;;;;;77.97;31.75;;;;;;;0.55;100.00;101572.25;10542001;28;20040;-54
2021/12/11 08:18:53;;;;;;;63.28;29.88;;;;;;;0.48;100.00;101591.19;10542222;28;20048;-54
2021/12/11 08:23:56;;;;;;;54.50;27.75;;;;;;;0.87;100.00;101620.25;10541417;28;20052;-58
2021/12/11 08:28:58;;;;;;;66.13;27.48;;;;;;;0.89;100.00;101623.66;10541532;28;20047;-56
2021/12/11 08:34:01;;;;;;;56.38;26.55;;;;;;;0.71;100.00;101628.03;10541101;28;20051;-57
2021/12/11 08:39:05;;;;;;;48.17;24.75;;;;;;;0.83;100.00;101636.59;10541074;28;20427;-57
2021/12/11 08:44:12;;;;;;;56.83;29.05;;;;;;;0.75;100.00;101662.41;10540655;28;20055;-58
2021/12/11 08:49:18;;;;;;;65.40;27.02;;;;;;;1.01;100.00;101653.72;10540431;28;20407;-58
2021/12/11 08:54:22;;;;;;;53.47;27.05;;;;;;;1.05;100.00;101658.00;10539482;28;20058;-57
2021/12/11 08:59:26;;;;;;;64.20;27.92;;;;;;;1.11;100.00;101660.56;10540811;28;20051;-57
2021/12/11 09:04:43;;;;;;;57.92;28.77;;;;;;;1.16;100.00;101688.91;10540023;28;20055;-55
2021/12/11 09:09:54;;;;;;;62.25;27.00;;;;;;;1.27;100.00;101698.31;10540032;28;20113;-55
2021/12/11 09:15:28;;;;;;;53.67;25.35;;;;;;;1.29;100.00;101688.88;10539921;28;20052;-57
2021/12/11 09:20:34;;;;;;;83.22;30.23;;;;;;;1.42;100.00;101694.81;10540038;28;20165;-56
2021/12/11 09:25:43;;;;;;;60.28;27.48;;;;;;;1.39;100.00;101704.28;10539792;28;20503;-57
2021/12/11 09:31:01;;;;;;;90.15;32.88;;;;;;;1.71;100.00;101732.50;10542567;28;20055;-54
2021/12/11 09:36:15;;;;;;;95.77;33.77;;;;;;;1.75;100.00;101762.63;10548856;28;20050;-57
2021/12/11 09:41:21;;;;;;;65.13;29.42;;;;;;;1.69;100.00;101749.75;10548382;28;20052;-58
2021/12/11 09:46:35;;;;;;;75.38;31.52;;;;;;;1.87;100.00;101748.78;10548290;28;20119;-58
2021/12/11 09:51:40;;;;;;;66.72;28.30;;;;;;;2.00;100.00;101767.63;10547602;28;20045;-57
2021/12/11 09:56:51;;;;;;;78.85;30.48;;;;;;;2.27;100.00;101776.94;10548047;28;20108;-56
2021/12/11 10:01:57;;;;;;;73.90;30.83;;;;;;;2.03;100.00;101783.13;10547220;28;20495;-55
2021/12/11 10:12:27;;;;;;;63.92;27.98;;;;;;;2.29;100.00;101815.69;10546960;28;20063;-59
2021/12/11 10:17:37;;;;;;;86.45;31.95;;;;;;;2.11;100.00;101809.75;10546727;28;20377;-60
2021/12/11 10:22:41;;;;;;;58.85;26.52;;;;;;;2.50;100.00;101832.78;10546664;28;20052;-60
2021/12/11 10:27:44;;;;;;;65.40;31.05;;;;;;;2.83;100.00;101854.94;10546370;28;20047;-61
2021/12/11 10:32:47;;;;;;;73.28;30.40;;;;;;;2.77;100.00;101842.91;10545078;28;20048;-59
2021/12/11 10:37:49;;;;;;;64.75;29.42;;;;;;;2.92;100.00;101843.63;10526844;28;20068;-59
2021/12/11 10:43:00;;;;;;;84.75;33.33;;;;;;;3.15;100.00;101851.19;10502285;28;20500;-60
2021/12/11 10:48:08;;;;;;;89.55;34.92;;;;;;;3.06;100.00;101870.25;10503316;28;20127;-59
2021/12/11 10:53:14;;;;;;;80.63;35.05;;;;;;;3.17;100.00;101889.13;10502697;28;20398;-60
2021/12/11 10:58:21;;;;;;;77.10;33.10;;;;;;;3.40;100.00;101876.84;10501553;28;20408;-59
2021/12/11 11:03:24;;;;;;;63.33;31.55;;;;;;;3.41;100.00;101881.97;10518210;28;20060;-60
2021/12/11 11:08:29;;;;;;;73.70;33.28;;;;;;;3.24;100.00;101894.25;10540871;28;20055;-60
2021/12/11 11:13:32;;;;;;;74.25;32.00;;;;;;;3.34;100.00;101912.25;10542825;28;20044;-59
2021/12/11 11:18:35;;;;;;;82.30;34.33;;;;;;;3.23;100.00;101897.69;10542715;28;20048;-60
2021/12/11 11:23:42;;;;;;;72.35;33.83;;;;;;;3.41;100.00;101918.22;10543428;28;20123;-57
2021/12/11 11:28:46;;;;;;;82.00;35.28;;;;;;;3.37;100.00;101921.72;10544022;28;20123;-58
2021/12/11 11:33:49;;;;;;;90.03;34.75;;;;;;;3.56;100.00;101943.13;10543326;28;20048;-59
2021/12/11 11:38:54;;;;;;;62.88;34.28;;;;;;;3.66;100.00;101956.84;10542159;28;20040;-56
2021/12/11 11:43:58;;;;;;;111.00;37.10;;;;;;;3.06;100.00;101950.47;10543193;28;20059;-57
2021/12/11 11:49:01;;;;;;;71.68;32.13;;;;;;;3.44;100.00;101964.81;10543066;28;20048;-59
2021/12/11 11:54:05;;;;;;;100.80;37.25;;;;;;;3.46;100.00;101970.84;10541769;28;20411;-57
2021/12/11 11:59:10;;;;;;;77.82;36.90;;;;;;;3.68;100.00;101976.69;10542681;28;20044;-56
2021/12/11 12:04:17;;;;;;;99.00;35.08;;;;;;;3.56;100.00;101974.19;10542309;28;20377;-56
2021/12/11 12:09:19;;;;;;;97.00;36.10;;;;;;;3.62;100.00;101981.06;10542437;28;20055;-56
2021/12/11 12:14:26;;;;;;;136.35;43.70;;;;;;;3.49;100.00;101986.34;10542073;28;20044;-58
2021/12/11 12:19:30;;;;;;;75.65;33.83;;;;;;;3.31;100.00;101997.72;10541827;28;20487;-57
2021/12/11 12:24:34;;;;;;;66.93;29.55;;;;;;;3.22;100.00;102002.13;10541604;28;20067;-58
2021/12/11 12:29:39;;;;;;;59.08;27.52;;;;;;;3.47;100.00;102006.22;10541409;28;20044;-58
2021/12/11 12:34:42;;;;;;;65.10;30.95;;;;;;;3.44;100.00;102005.38;10541007;28;20048;-55
2021/12/11 12:39:47;;;;;;;51.15;25.77;;;;;;;3.79;100.00;102019.75;10540971;28;20055;-57
2021/12/11 12:45:02;;;;;;;50.13;25.98;;;;;;;3.86;100.00;102018.81;10540923;28;20520;-57
2021/12/11 12:50:17;;;;;;;62.25;29.50;;;;;;;3.99;100.00;102035.13;10541273;28;20040;-57
2021/12/11 12:55:27;;;;;;;62.40;30.40;;;;;;;4.09;100.00;102036.72;10540480;28;20052;-58
2021/12/11 13:00:35;;;;;;;44.08;24.90;;;;;;;3.97;100.00;102036.84;10540362;28;20040;-59
2021/12/11 13:05:48;;;;;;;54.75;26.48;;;;;;;3.74;100.00;102031.91;10540106;28;20488;-55
2021/12/11 13:10:58;;;;;;;52.20;27.08;;;;;;;4.41;100.00;102043.28;10540701;28;20071;-57
2021/12/11 13:16:11;;;;;;;52.30;26.67;;;;;;;4.27;100.00;102036.53;10540035;28;20054;-57
2021/12/11 13:21:25;;;;;;;50.47;26.02;;;;;;;4.17;100.00;102039.22;10540338;28;20131;-57
2021/12/11 13:26:29;;;;;;;49.40;25.60;;;;;;;4.23;100.00;102057.31;10539815;28;20052;-59
2021/12/11 13:31:39;;;;;;;43.60;23.48;;;;;;;4.09;100.00;102065.25;10539633;28;20052;-57
2021/12/11 13:36:42;;;;;;;47.22;24.42;;;;;;;4.24;100.00;102067.66;10539527;28;20051;-57
2021/12/11 13:41:49;;;;;;;45.60;25.60;;;;;;;4.22;100.00;102068.53;10539106;28;20059;-55
2021/12/11 13:46:51;;;;;;;52.45;25.80;;;;;;;4.05;100.00;102064.41;10539444;28;20040;-59
2021/12/11 13:51:56;;;;;;;48.70;25.77;;;;;;;4.03;100.00;102076.50;10501662;28;20052;-59
2021/12/11 13:57:06;;;;;;;59.53;28.75;;;;;;;4.16;100.00;102091.97;10496865;28;20048;-59
2021/12/11 14:02:10;;;;;;;54.30;27.85;;;;;;;4.21;100.00;102091.03;10494156;28;20440;-57
2021/12/11 14:07:19;;;;;;;62.00;27.65;;;;;;;4.31;100.00;102090.94;10495311;28;20497;-58
2021/12/11 14:12:24;;;;;;;63.40;30.42;;;;;;;4.23;100.00;102091.88;10494932;28;20044;-59
2021/12/11 14:17:28;;;;;;;61.40;29.48;;;;;;;4.21;100.00;102091.03;10497810;28;20041;-59
2021/12/11 14:22:34;;;;;;;53.58;28.35;;;;;;;4.26;100.00;102102.22;10502640;28;20123;-58
2021/12/11 14:27:37;;;;;;;50.13;24.65;;;;;;;4.63;100.00;102116.53;10502935;28;20056;-58
2021/12/11 14:32:43;;;;;;;50.45;25.75;;;;;;;4.38;100.00;102108.16;10501147;28;20064;-60
2021/12/11 14:37:46;;;;;;;68.35;31.00;;;;;;;4.10;100.00;102118.78;10501062;28;20488;-57
2021/12/11 14:42:49;;;;;;;60.95;32.85;;;;;;;4.28;100.00;102135.91;10501956;28;20044;-59
2021/12/11 14:47:53;;;;;;;68.97;30.95;;;;;;;4.10;100.00;102131.75;10501878;28;20055;-57
2021/12/11 14:52:57;;;;;;;66.40;29.80;;;;;;;3.94;100.00;102138.81;10501455;28;20036;-63
2021/12/11 14:58:00;;;;;;;73.78;28.55;;;;;;;3.90;100.00;102148.34;10533417;28;20097;-60
2021/12/11 15:03:03;;;;;;;92.40;32.80;;;;;;;3.52;100.00;102144.28;10542047;28;20127;-58
2021/12/11 15:08:06;;;;;;;62.22;30.73;;;;;;;3.44;100.00;102142.63;10544980;28;20052;-60
2021/12/11 15:13:09;;;;;;;54.85;26.50;;;;;;;3.09;100.00;102143.66;10543192;28;20059;-59
2021/12/11 15:18:13;;;;;;;59.25;25.77;;;;;;;3.08;100.00;102145.41;10544828;28;20055;-55
2021/12/11 15:23:17;;;;;;;59.42;26.15;;;;;;;2.79;100.00;102148.06;10543822;28;20048;-59
2021/12/11 15:28:20;;;;;;;78.38;28.60;;;;;;;2.66;100.00;102162.78;10542603;28;20503;-57
2021/12/11 15:33:22;;;;;;;87.38;29.25;;;;;;;2.40;100.00;102162.84;10543759;28;20392;-58
2021/12/11 15:38:25;;;;;;;61.90;25.77;;;;;;;2.54;100.00;102170.56;10544026;28;20044;-55
2021/12/11 15:43:28;;;;;;;43.53;22.65;;;;;;;2.14;100.00;102160.28;10541878;28;20052;-59
2021/12/11 15:48:30;;;;;;;46.47;23.73;;;;;;;2.45;100.00;102179.19;10543223;28;20051;-57
2021/12/11 15:53:33;;;;;;;42.85;21.67;;;;;;;2.35;100.00;102180.94;10541505;28;20047;-57
2021/12/11 15:58:39;;;;;;;40.08;22.05;;;;;;;1.88;100.00;102181.78;10542905;28;20052;-57
2021/12/11 16:03:42;;;;;;;41.78;21.13;;;;;;;1.68;100.00;102171.44;10542719;28;20048;-59
2021/12/11 16:08:48;;;;;;;46.40;23.48;;;;;;;2.09;100.00;102191.28;10540971;28;20079;-59
2021/12/11 16:13:51;;;;;;;38.72;20.30;;;;;;;1.82;100.00;102179.22;10542660;28;20051;-59
2021/12/11 16:18:53;;;;;;;55.20;23.02;;;;;;;1.70;100.00;102190.41;10542364;28;20189;-57
2021/12/11 16:23:59;;;;;;;50.67;23.27;;;;;;;1.75;100.00;102199.00;10541705;28;20051;-59
2021/12/11 16:29:03;;;;;;;48.47;22.10;;;;;;;1.39;100.00;102187.72;10542045;28;20048;-56
2021/12/11 16:34:10;;;;;;;50.90;20.38;;;;;;;1.21;100.00;102188.53;10541332;28;20048;-57
2021/12/11 16:39:18;;;;;;;46.60;20.20;;;;;;;1.53;100.00;102194.63;10540679;28;20530;-57
2021/12/11 16:44:24;;;;;;;46.85;19.80;;;;;;;1.47;100.00;102206.69;10541085;28;20056;-58
2021/12/11 16:49:30;;;;;;;47.25;17.85;;;;;;;1.26;100.00;102217.81;10539782;28;20056;-57
2021/12/11 16:54:36;;;;;;;37.28;17.98;;;;;;;1.52;100.00;102231.66;10540773;28;20044;-57
2021/12/11 16:59:40;;;;;;;37.55;17.08;;;;;;;1.76;100.00;102236.88;10540361;28;20044;-58
2021/12/11 17:04:42;;;;;;;32.95;15.13;;;;;;;1.71;100.00;102241.16;10540183;28;20051;-57
2021/12/11 17:09:47;;;;;;;75.32;32.50;;;;;;;1.98;100.00;102245.53;10539903;28;20055;-58
2021/12/11 17:14:56;;;;;;;44.05;18.77;;;;;;;2.16;100.00;102251.59;10540339;28;20055;-57
2021/12/11 17:19:59;;;;;;;36.65;18.88;;;;;;;2.21;100.00;102255.88;10540028;28;20130;-57
2021/12/11 17:25:01;;;;;;;38.08;17.90;;;;;;;1.96;100.00;102255.00;10539676;28;20510;-56
2021/12/11 17:30:05;;;;;;;42.97;18.85;;;;;;;1.83;100.00;102264.47;10539650;28;20059;-57
2021/12/11 17:35:09;;;;;;;31.63;14.93;;;;;;;1.91;100.00;102268.78;10539671;28;20040;-56
2021/12/11 17:40:14;;;;;;;29.48;14.10;;;;;;;2.08;100.00;102286.88;10539474;28;20056;-59
2021/12/11 17:45:18;;;;;;;26.38;14.40;;;;;;;2.82;100.00;102312.78;10539313;28;20488;-57
2021/12/11 17:50:22;;;;;;;30.75;16.25;;;;;;;2.58;100.00;102301.56;10539420;28;20044;-57
2021/12/11 17:55:27;;;;;;;34.92;17.40;;;;;;;2.70;100.00;102304.16;10547622;28;20399;-57
2021/12/11 18:00:34;;;;;;;27.40;16.73;;;;;;;2.64;100.00;102311.06;10548168;28;20040;-55
2021/12/11 18:05:43;;;;;;;41.95;18.70;;;;;;;3.08;100.00;102323.09;10547411;28;20055;-55
2021/12/11 18:10:59;;;;;;;35.97;17.30;;;;;;;3.24;100.00;102334.28;10547506;28;20055;-58
2021/12/11 18:16:03;;;;;;;29.52;14.45;;;;;;;3.31;100.00;102344.63;10546485;28;20051;-56
2021/12/11 18:21:18;;;;;;;26.02;16.50;;;;;;;3.42;100.00;102339.41;10546700;28;20052;-57
2021/12/11 18:26:23;;;;;;;47.13;20.05;;;;;;;3.34;100.00;102360.13;10546425;28;20044;-57
2021/12/11 18:31:26;;;;;;;37.50;20.20;;;;;;;3.32;100.00;102356.69;10546123;28;20399;-58
2021/12/11 18:36:38;;;;;;;32.55;18.88;;;;;;;3.56;100.00;102367.00;10546481;28;20048;-59
2021/12/11 18:41:42;;;;;;;30.58;20.08;;;;;;;3.25;100.00;102360.16;10545551;28;20491;-58
2021/12/11 18:46:44;;;;;;;45.78;22.30;;;;;;;3.54;100.00;102354.91;10546187;28;20071;-57
2021/12/11 18:51:48;;;;;;;44.97;21.75;;;;;;;3.53;100.00;102368.72;10545322;28;20048;-57
2021/12/11 18:56:54;;;;;;;48.33;23.38;;;;;;;3.61;100.00;102383.38;10545497;28;20407;-59
2021/12/11 19:02:09;;;;;;;37.97;20.75;;;;;;;3.93;100.00;102393.63;10544751;28;20044;-57
2021/12/11 19:07:15;;;;;;;38.40;22.23;;;;;;;3.44;100.00;102360.97;10544542;28;20523;-55
2021/12/11 19:12:22;;;;;;;38.97;21.23;;;;;;;3.78;100.00;102375.53;10544303;28;20044;-53
2021/12/11 19:17:25;;;;;;;49.97;23.40;;;;;;;3.65;100.00;102369.56;10544838;28;20062;-57
2021/12/11 19:22:28;;;;;;;38.33;19.67;;;;;;;3.73;100.00;102411.81;10544313;28;20484;-58
2021/12/11 19:27:34;;;;;;;36.35;18.75;;;;;;;3.64;100.00;102037.16;10544224;28;20369;-57
2021/12/11 19:32:38;;;;;;;40.17;20.17;;;;;;;3.57;100.00;102045.84;10542849;28;20044;-57
2021/12/11 19:37:41;;;;;;;39.30;23.25;;;;;;;3.49;100.00;101998.44;10543513;28;20048;-55
2021/12/11 19:42:43;;;;;;;51.33;26.02;;;;;;;3.39;100.00;102132.28;10543548;28;20063;-57
2021/12/11 19:47:46;;;;;;;54.17;22.77;;;;;;;3.25;100.00;102178.09;10543430;28;20055;-56
2021/12/11 19:52:48;;;;;;;50.83;26.08;;;;;;;3.23;100.00;102179.81;10542905;28;20048;-56
2021/12/11 19:57:51;;;;;;;51.40;23.80;;;;;;;3.25;100.00;102157.41;10542002;28;20047;-56
2021/12/11 20:02:57;;;;;;;44.10;24.50;;;;;;;3.28;100.00;102160.81;10542409;28;20492;-56
2021/12/11 20:08:03;;;;;;;57.10;24.48;;;;;;;3.21;100.00;102181.56;10542856;28;20047;-56
2021/12/11 20:13:17;;;;;;;55.47;25.45;;;;;;;3.04;100.00;102182.47;10541477;28;20052;-57
2021/12/11 20:18:26;;;;;;;48.33;25.25;;;;;;;2.98;100.00;102185.13;10542036;28;20484;-57
2021/12/11 20:23:29;;;;;;;57.40;26.80;;;;;;;3.13;100.00;102198.00;10540693;28;20051;-56
2021/12/11 20:28:31;;;;;;;73.00;34.38;;;;;;;3.01;100.00;102203.22;10541929;28;20056;-58
2021/12/11 20:33:35;;;;;;;58.75;24.13;;;;;;;2.87;100.00;102200.66;10541144;28;20043;-55
2021/12/11 20:38:44;;;;;;;56.15;24.58;;;;;;;2.98;100.00;102188.56;10542392;28;20058;-56
2021/12/11 20:43:48;;;;;;;37.83;18.90;;;;;;;3.06;100.00;102191.13;10539887;28;20435;-58
2021/12/11 20:48:51;;;;;;;49.08;23.30;;;;;;;2.95;100.00;102198.06;10540998;28;20052;-58
2021/12/11 20:53:57;;;;;;;50.42;24.15;;;;;;;2.96;100.00;102211.00;10540900;28;20047;-58
2021/12/11 20:59:00;;;;;;;54.75;22.98;;;;;;;2.93;100.00;102202.38;10540719;28;20044;-59
2021/12/11 21:04:19;;;;;;;43.85;21.92;;;;;;;3.01;100.00;102210.09;10540303;28;20048;-55
2021/12/11 21:09:52;;;;;;;56.33;24.63;;;;;;;2.84;100.00;102215.31;10540297;28;20075;-57
2021/12/11 21:14:56;;;;;;;55.47;24.60;;;;;;;2.91;100.00;102217.06;10539808;28;20048;-59
2021/12/11 21:20:14;;;;;;;47.88;23.13;;;;;;;2.87;100.00;102229.13;10540588;28;20058;-58
2021/12/11 21:25:45;;;;;;;47.75;22.67;;;;;;;3.07;100.00;102212.69;10540170;28;20047;-56
2021/12/11 21:30:53;;;;;;;44.10;22.95;;;;;;;2.92;100.00;102216.16;10539558;28;20496;-58
2021/12/11 21:35:57;;;;;;;42.03;22.25;;;;;;;3.08;100.00;102225.63;10539532;28;20498;-57
2021/12/11 21:41:42;;;;;;;42.17;21.98;;;;;;;3.11;100.00;102240.25;10540039;28;20056;-57
2021/12/11 21:46:48;;;;;;;45.45;23.05;;;;;;;3.09;100.00;102242.00;10539402;28;20407;-59
2021/12/11 21:51:58;;;;;;;44.38;23.42;;;;;;;3.08;100.00;102255.81;10539605;28;20048;-58
2021/12/11 21:57:01;;;;;;;53.85;23.23;;;;;;;3.14;100.00;102259.25;10539338;28;20045;-58
2021/12/11 22:02:08;;;;;;;53.95;22.30;;;;;;;3.16;100.00;102254.94;10539150;28;20068;-52
2021/12/11 22:07:15;;;;;;;34.20;17.48;;;;;;;3.30;100.00;102252.28;10539612;28;20063;-55
2021/12/11 22:12:23;;;;;;;51.85;23.33;;;;;;;3.21;100.00;102260.09;10538948;28;20048;-59
2021/12/11 22:17:28;;;;;;;44.17;19.63;;;;;;;3.25;100.00;102279.06;10538890;28;20499;-56
2021/12/11 22:22:33;;;;;;;33.30;16.95;;;;;;;3.30;100.00;102280.75;10538617;28;20040;-54
2021/12/11 22:27:36;;;;;;;34.67;19.50;;;;;;;3.41;100.00;102288.47;10538948;28;20056;-53
2021/12/11 22:32:39;;;;;;;42.88;20.98;;;;;;;3.23;100.00;102288.53;10537136;28;20041;-57
2021/12/11 22:37:43;;;;;;;48.78;20.83;;;;;;;3.32;100.00;102291.97;10540860;28;20496;-56
2021/12/11 22:42:46;;;;;;;46.60;20.58;;;;;;;3.24;100.00;102291.13;10546008;28;20059;-56
2021/12/11 22:47:50;;;;;;;41.05;18.50;;;;;;;3.40;100.00;102289.34;10545829;28;20048;-59
2021/12/11 22:52:58;;;;;;;29.00;16.33;;;;;;;3.46;100.00;102289.34;10545291;28;20496;-59
2021/12/11 22:58:05;;;;;;;49.38;19.90;;;;;;;3.32;100.00;102294.56;10545460;28;20055;-56
2021/12/11 23:03:12;;;;;;;38.90;18.83;;;;;;;3.30;100.00;102285.09;10545566;28;20052;-58
2021/12/11 23:08:18;;;;;;;37.58;18.92;;;;;;;3.27;100.00;102285.09;10544836;28;20044;-55